sensor_id;sensor_type;location;lat;lon;timestamp;temperature;humidity
21267;DHT22;10791;53.108;18.326;2022-12-15T00:01:02;-7.50;99.90
21267;DHT22;10791;53.108;18.326;2022-12-15T00:06:25;-7.60;99.90
21267;DHT22;10791;53.108;18.326;2022-12-15T00:11:47;-7.60;99.90
21267;DHT22;10791;53.108;18.326;2022-12-15T00:17:08;-7.70;99.90
21267;DHT22;10791;53.108;18.326;2022-12-15T00:22:30;-7.80;99.90
21267;DHT22;10791;53.108;18.326;2022-12-15T00:27:55;-7.90;99.90
21267;DHT22;10791;53.108;18.326;2022-12-15T00:33:18;-7.90;99.90
21267;DHT22;10791;53.108;18.326;2022-12-15T00:38:40;-8.00;99.90
21267;DHT22;10791;53.108;18.326;2022-12-15T00:43:46;-8.00;99.90
21267;DHT22;10791;53.108;18.326;2022-12-15T00:48:50;-8.50;99.90
21267;DHT22;10791;53.108;18.326;2022-12-15T00:53:54;-8.20;99.90
21267;DHT22;10791;53.108;18.326;2022-12-15T00:59:19;-8.20;99.90
21267;DHT22;10791;53.108;18.326;2022-12-15T01:04:42;-8.60;99.90
21267;DHT22;10791;53.108;18.326;2022-12-15T01:10:04;-8.30;99.90
21267;DHT22;10791;53.108;18.326;2022-12-15T01:15:27;-8.40;99.90
21267;DHT22;10791;53.108;18.326;2022-12-15T01:21:01;-8.40;99.90
21267;DHT22;10791;53.108;18.326;2022-12-15T01:26:07;-8.50;99.90
21267;DHT22;10791;53.108;18.326;2022-12-15T01:31:11;-8.50;99.90
21267;DHT22;10791;53.108;18.326;2022-12-15T01:36:15;-8.60;99.90
21267;DHT22;10791;53.108;18.326;2022-12-15T01:41:19;-8.60;99.90
21267;DHT22;10791;53.108;18.326;2022-12-15T01:46:23;-8.60;99.90
21267;DHT22;10791;53.108;18.326;2022-12-15T01:51:39;-8.60;99.90
21267;DHT22;10791;53.108;18.326;2022-12-15T01:56:49;-8.70;99.90
21267;DHT22;10791;53.108;18.326;2022-12-15T02:01:53;-8.70;99.90
21267;DHT22;10791;53.108;18.326;2022-12-15T02:06:57;-8.70;99.90
21267;DHT22;10791;53.108;18.326;2022-12-15T02:12:28;-8.70;99.90
21267;DHT22;10791;53.108;18.326;2022-12-15T02:29:07;-8.80;99.90
21267;DHT22;10791;53.108;18.326;2022-12-15T02:34:48;-8.80;99.90
21267;DHT22;10791;53.108;18.326;2022-12-15T02:39:53;-8.80;99.90
21267;DHT22;10791;53.108;18.326;2022-12-15T03:01:52;-9.00;99.90
21267;DHT22;10791;53.108;18.326;2022-12-15T03:06:38;-9.20;99.90
21267;DHT22;10791;53.108;18.326;2022-12-15T03:11:43;-9.10;99.90
21267;DHT22;10791;53.108;18.326;2022-12-15T03:16:52;-9.10;99.90
21267;DHT22;10791;53.108;18.326;2022-12-15T03:21:57;-9.70;99.90
21267;DHT22;10791;53.108;18.326;2022-12-15T03:27:06;-9.30;99.90
21267;DHT22;10791;53.108;18.326;2022-12-15T03:32:13;-9.40;99.90
21267;DHT22;10791;53.108;18.326;2022-12-15T03:37:21;-9.30;99.90
21267;DHT22;10791;53.108;18.326;2022-12-15T03:42:26;-9.10;99.90
21267;DHT22;10791;53.108;18.326;2022-12-15T03:47:52;-9.50;99.90
21267;DHT22;10791;53.108;18.326;2022-12-15T03:52:59;-10.20;99.90
21267;DHT22;10791;53.108;18.326;2022-12-15T03:58:12;-9.70;99.90
21267;DHT22;10791;53.108;18.326;2022-12-15T04:03:21;-9.80;99.90
21267;DHT22;10791;53.108;18.326;2022-12-15T04:08:41;-9.90;99.90
21267;DHT22;10791;53.108;18.326;2022-12-15T04:14:05;-9.90;99.90
21267;DHT22;10791;53.108;18.326;2022-12-15T04:19:12;-9.80;99.90
21267;DHT22;10791;53.108;18.326;2022-12-15T04:24:37;-9.60;99.90
21267;DHT22;10791;53.108;18.326;2022-12-15T04:30:07;-9.40;99.90
21267;DHT22;10791;53.108;18.326;2022-12-15T04:35:35;-9.20;99.90
21267;DHT22;10791;53.108;18.326;2022-12-15T04:41:20;-8.80;99.90
21267;DHT22;10791;53.108;18.326;2022-12-15T04:46:55;-8.80;99.90
21267;DHT22;10791;53.108;18.326;2022-12-15T04:52:26;-8.80;99.90
21267;DHT22;10791;53.108;18.326;2022-12-15T04:58:21;-9.10;99.90
21267;DHT22;10791;53.108;18.326;2022-12-15T05:03:57;-8.50;99.90
21267;DHT22;10791;53.108;18.326;2022-12-15T05:09:37;-8.40;99.90
21267;DHT22;10791;53.108;18.326;2022-12-15T05:15:33;-8.30;99.90
21267;DHT22;10791;53.108;18.326;2022-12-15T05:21:07;-8.20;99.90
21267;DHT22;10791;53.108;18.326;2022-12-15T14:25:25;-3.80;99.90
21267;DHT22;10791;53.108;18.326;2022-12-15T14:30:31;-3.80;99.90
21267;DHT22;10791;53.108;18.326;2022-12-15T14:35:46;-4.20;99.90
21267;DHT22;10791;53.108;18.326;2022-12-15T14:40:54;-3.80;99.90
21267;DHT22;10791;53.108;18.326;2022-12-15T14:46:10;-3.80;99.90
21267;DHT22;10791;53.108;18.326;2022-12-15T14:51:20;-3.80;99.90
21267;DHT22;10791;53.108;18.326;2022-12-15T14:56:28;-3.80;99.90
21267;DHT22;10791;53.108;18.326;2022-12-15T15:01:40;-3.80;99.90
21267;DHT22;10791;53.108;18.326;2022-12-15T15:07:14;-3.80;99.90
21267;DHT22;10791;53.108;18.326;2022-12-15T15:12:21;-3.70;99.90
21267;DHT22;10791;53.108;18.326;2022-12-15T15:17:34;-3.70;99.90
21267;DHT22;10791;53.108;18.326;2022-12-15T15:22:45;-3.70;99.90
21267;DHT22;10791;53.108;18.326;2022-12-15T15:27:48;-3.70;99.90
21267;DHT22;10791;53.108;18.326;2022-12-15T15:38:01;-3.60;99.90
21267;DHT22;10791;53.108;18.326;2022-12-15T15:43:10;-3.60;99.90
21267;DHT22;10791;53.108;18.326;2022-12-15T15:48:24;-3.60;99.90
21267;DHT22;10791;53.108;18.326;2022-12-15T15:53:31;-3.60;99.90
21267;DHT22;10791;53.108;18.326;2022-12-15T15:58:35;-3.70;99.90
21267;DHT22;10791;53.108;18.326;2022-12-15T16:03:40;-3.60;99.90
21267;DHT22;10791;53.108;18.326;2022-12-15T16:08:46;-3.60;99.90
21267;DHT22;10791;53.108;18.326;2022-12-15T16:13:51;-3.60;99.90
21267;DHT22;10791;53.108;18.326;2022-12-15T16:18:55;-3.60;99.90
21267;DHT22;10791;53.108;18.326;2022-12-15T16:23:58;-3.60;99.90
21267;DHT22;10791;53.108;18.326;2022-12-15T16:29:14;-3.60;99.90
21267;DHT22;10791;53.108;18.326;2022-12-15T16:34:19;-3.50;99.90
21267;DHT22;10791;53.108;18.326;2022-12-15T16:39:32;-3.50;99.90
21267;DHT22;10791;53.108;18.326;2022-12-15T16:44:36;-3.40;99.90
21267;DHT22;10791;53.108;18.326;2022-12-15T16:49:40;-3.50;99.90
21267;DHT22;10791;53.108;18.326;2022-12-15T16:54:47;-3.40;99.90
21267;DHT22;10791;53.108;18.326;2022-12-15T16:59:51;-3.50;99.90
21267;DHT22;10791;53.108;18.326;2022-12-15T17:04:55;-3.40;99.90
21267;DHT22;10791;53.108;18.326;2022-12-15T17:09:59;-3.40;99.90
21267;DHT22;10791;53.108;18.326;2022-12-15T17:15:15;-3.40;99.90
21267;DHT22;10791;53.108;18.326;2022-12-15T17:20:21;-3.40;99.90
21267;DHT22;10791;53.108;18.326;2022-12-15T17:25:37;-3.40;99.90
21267;DHT22;10791;53.108;18.326;2022-12-15T17:31:03;-3.40;99.90
21267;DHT22;10791;53.108;18.326;2022-12-15T17:36:15;-3.40;99.90
21267;DHT22;10791;53.108;18.326;2022-12-15T17:41:19;-3.40;99.90
21267;DHT22;10791;53.108;18.326;2022-12-15T17:46:43;-3.40;99.90
21267;DHT22;10791;53.108;18.326;2022-12-15T17:51:48;-3.40;99.90
21267;DHT22;10791;53.108;18.326;2022-12-15T17:56:52;-3.40;99.90
21267;DHT22;10791;53.108;18.326;2022-12-15T18:01:56;-3.40;99.90
21267;DHT22;10791;53.108;18.326;2022-12-15T18:07:01;-3.40;99.90
21267;DHT22;10791;53.108;18.326;2022-12-15T18:12:16;-3.40;99.90
21267;DHT22;10791;53.108;18.326;2022-12-15T18:17:21;-3.40;99.90
21267;DHT22;10791;53.108;18.326;2022-12-15T18:22:26;-3.40;99.90
21267;DHT22;10791;53.108;18.326;2022-12-15T18:27:30;-3.40;99.90
21267;DHT22;10791;53.108;18.326;2022-12-15T18:49:43;-3.50;99.90
21267;DHT22;10791;53.108;18.326;2022-12-15T18:54:49;-3.50;99.90
21267;DHT22;10791;53.108;18.326;2022-12-15T19:05:21;-3.50;99.90
21267;DHT22;10791;53.108;18.326;2022-12-15T19:10:33;-3.50;99.90
21267;DHT22;10791;53.108;18.326;2022-12-15T19:15:37;-3.50;99.90
21267;DHT22;10791;53.108;18.326;2022-12-15T19:20:42;-3.50;99.90
21267;DHT22;10791;53.108;18.326;2022-12-15T19:26:07;-3.40;99.90
21267;DHT22;10791;53.108;18.326;2022-12-15T19:31:13;-3.40;99.90
21267;DHT22;10791;53.108;18.326;2022-12-15T19:36:21;-3.40;99.90
21267;DHT22;10791;53.108;18.326;2022-12-15T19:41:35;-3.10;99.90
21267;DHT22;10791;53.108;18.326;2022-12-15T19:46:43;-3.40;99.90
21267;DHT22;10791;53.108;18.326;2022-12-15T19:51:52;-3.40;99.90
21267;DHT22;10791;53.108;18.326;2022-12-15T19:56:58;-3.40;99.90
21267;DHT22;10791;53.108;18.326;2022-12-15T20:02:02;-3.40;99.90
21267;DHT22;10791;53.108;18.326;2022-12-15T20:07:27;-3.40;99.90
21267;DHT22;10791;53.108;18.326;2022-12-15T20:12:35;-3.40;99.90
21267;DHT22;10791;53.108;18.326;2022-12-15T20:17:39;-3.30;99.90
21267;DHT22;10791;53.108;18.326;2022-12-15T20:22:49;-3.40;99.90
21267;DHT22;10791;53.108;18.326;2022-12-15T20:27:55;-3.40;99.90
21267;DHT22;10791;53.108;18.326;2022-12-15T20:33:04;-3.40;99.90
21267;DHT22;10791;53.108;18.326;2022-12-15T20:38:33;-3.40;99.90
21267;DHT22;10791;53.108;18.326;2022-12-15T20:43:38;-3.40;99.90
21267;DHT22;10791;53.108;18.326;2022-12-15T20:48:44;-3.40;99.90
21267;DHT22;10791;53.108;18.326;2022-12-15T20:53:50;-3.40;99.90
21267;DHT22;10791;53.108;18.326;2022-12-15T20:58:58;-3.40;99.90
21267;DHT22;10791;53.108;18.326;2022-12-15T21:04:18;-3.40;99.90
21267;DHT22;10791;53.108;18.326;2022-12-15T21:09:23;-3.50;99.90
21267;DHT22;10791;53.108;18.326;2022-12-15T21:14:27;-3.60;99.90
21267;DHT22;10791;53.108;18.326;2022-12-15T21:19:31;-3.60;99.90
21267;DHT22;10791;53.108;18.326;2022-12-15T21:24:35;-3.70;99.90
21267;DHT22;10791;53.108;18.326;2022-12-15T21:29:40;-3.80;99.90
21267;DHT22;10791;53.108;18.326;2022-12-15T21:34:50;-3.90;99.90
21267;DHT22;10791;53.108;18.326;2022-12-15T21:39:57;-3.90;99.90
21267;DHT22;10791;53.108;18.326;2022-12-15T21:45:23;-4.00;99.90
21267;DHT22;10791;53.108;18.326;2022-12-15T21:50:28;-4.00;99.90
21267;DHT22;10791;53.108;18.326;2022-12-15T21:55:32;-4.00;99.90
21267;DHT22;10791;53.108;18.326;2022-12-15T22:00:35;-4.00;99.90
21267;DHT22;10791;53.108;18.326;2022-12-15T22:05:47;-4.10;99.90
21267;DHT22;10791;53.108;18.326;2022-12-15T22:10:51;-4.10;99.90
21267;DHT22;10791;53.108;18.326;2022-12-15T22:15:56;-4.20;99.90
21267;DHT22;10791;53.108;18.326;2022-12-15T22:21:00;-4.30;99.90
21267;DHT22;10791;53.108;18.326;2022-12-15T22:26:05;-4.40;99.90
21267;DHT22;10791;53.108;18.326;2022-12-15T22:31:09;-4.50;99.90
21267;DHT22;10791;53.108;18.326;2022-12-15T22:36:18;-4.60;99.90
21267;DHT22;10791;53.108;18.326;2022-12-15T22:41:23;-4.80;99.90
21267;DHT22;10791;53.108;18.326;2022-12-15T22:46:30;-5.00;99.90
21267;DHT22;10791;53.108;18.326;2022-12-15T22:51:36;-5.10;99.90
21267;DHT22;10791;53.108;18.326;2022-12-15T22:56:40;-5.30;99.90
21267;DHT22;10791;53.108;18.326;2022-12-15T23:01:44;-5.40;99.90
21267;DHT22;10791;53.108;18.326;2022-12-15T23:06:48;-5.60;99.90
21267;DHT22;10791;53.108;18.326;2022-12-15T23:11:53;-5.70;99.90
21267;DHT22;10791;53.108;18.326;2022-12-15T23:16:58;-5.90;99.90
21267;DHT22;10791;53.108;18.326;2022-12-15T23:22:02;-6.00;99.90
21267;DHT22;10791;53.108;18.326;2022-12-15T23:27:09;-6.20;99.90
21267;DHT22;10791;53.108;18.326;2022-12-15T23:32:14;-6.30;99.90
21267;DHT22;10791;53.108;18.326;2022-12-15T23:37:18;-6.30;99.90
21267;DHT22;10791;53.108;18.326;2022-12-15T23:42:22;-6.40;99.90
21267;DHT22;10791;53.108;18.326;2022-12-15T23:47:26;-6.50;99.90
21267;DHT22;10791;53.108;18.326;2022-12-15T23:52:30;-6.70;99.90
21267;DHT22;10791;53.108;18.326;2022-12-15T23:57:36;-6.80;99.90
